Bookmark and Share
Track history (hours):
 

Bulat-1

Last reported at 2014-Apr-24 06:15 UTC. Time now 2014-Apr-24 13:40 UTC.
Position N 46°20' E 030°39'.

Length 30 m.

Type: Tug. MMSI: 272597000.

NotesDate/timePositionNaut miles runAvg speedWind from/ knotsBaromVisibWave heightAir tempDewpointWater temp
2014-Apr-24 06:15N 46°20' E 030°39'0 0.0
2014-Apr-24 05:32N 46°20' E 030°39'0 0.0
2014-Apr-24 03:32N 46°20' E 030°39'0 0.0
2014-Apr-24 02:33N 46°20' E 030°39'0 0.0
2014-Apr-24 01:33N 46°20' E 030°39'0 0.0
2014-Apr-24 00:09N 46°20' E 030°39'0 0.0
2014-Apr-23 23:33N 46°20' E 030°39'0 0.0
2014-Apr-23 22:33N 46°20' E 030°39'0 0.0
2014-Apr-23 21:33N 46°20' E 030°39'0 0.0
2014-Apr-23 20:33N 46°20' E 030°39'0 0.0
2014-Apr-23 19:33N 46°20' E 030°39'0 0.0
2014-Apr-23 18:34N 46°20' E 030°39'0 0.0
2014-Apr-23 17:33N 46°20' E 030°39'1 0.6
2014-Apr-23 15:30N 46°19' E 030°40'0 0.0
2014-Apr-23 04:24N 46°19' E 030°40'1 0.0
2014-Apr-22 05:32N 46°19' E 030°40'0 0.0
2014-Apr-21 21:34N 46°19' E 030°40'2 1.6
2014-Apr-21 20:33N 46°20' E 030°39'  
2014-Apr-17 23:28N 46°19' E 030°43'1011.2
2014-Apr-17 22:33N 46°26' E 030°54'11 8.8
2014-Apr-17 21:17N 46°34' E 031°04'810.6
2014-Apr-17 20:29N 46°35' E 031°16'4 4.6
2014-Apr-17 19:34N 46°35' E 031°22'61 4.5
2014-Apr-17 06:05N 45°37' E 031°49'4 7.0
2014-Apr-17 05:33N 45°34' E 031°53'7 6.3
2014-Apr-17 04:30N 45°29' E 031°59'8 5.6
2014-Apr-17 03:06N 45°23' E 032°07'3 5.6
2014-Apr-17 02:33N 45°21' E 032°10'49 2.4
2014-Apr-16 06:32N 45°54' E 031°19'1110.9
2014-Apr-16 05:32N 46°02' E 031°08'26 2.6
2014-Apr-15 19:32N 46°19' E 030°40'0 0.0
2014-Apr-15 18:32N 46°19' E 030°40'  

Dump ship's entire track history

sailing weather and tide predictions

Bulat-1 — UUAP2 — position and weather